Time;durP1;ratioP1;P1;durP2;ratioP2;P2;SDS_P1;SDS_P2;PMS_P1;PMS_P2;Temp;Humidity;BMP_temperature;BMP_pressure;BME280_temperature;BME280_humidity;BME280_pressure;Samples;Min_cycle;Max_cycle;Signal;HPM_P1;HPM_P2
2024/02/28 00:01:12;;;;;;;;;;;;;;;;;;5084312;28;19916;-54
2024/02/28 00:03:37;;;;;;;;;;;;;;;;;;5080526;28;19916;-62
2024/02/28 00:06:02;;;;;;;;;;;;;;;;;;5087806;28;19980;-61
2024/02/28 00:08:28;;;;;;;;;;;;;;;;;;5077684;28;19936;-62
2024/02/28 00:10:53;;;;;;;;;;;;;;;;;;5092646;28;19912;-62
2024/02/28 00:13:20;;;;;;;;;;;;;;;;;;5078409;28;19917;-62
2024/02/28 00:15:45;;;;;;;;;;;;;;;;;;5086635;28;20420;-62
2024/02/28 00:18:10;;;;;;;;;;;;;;;;;;5082805;28;19999;-61
2024/02/28 00:20:35;;;;;;;;;;;;;;;;;;5086615;28;19966;-61
2024/02/28 00:23:00;;;;;;;;;;;;;;;;;;5083369;28;19934;-62
2024/02/28 00:25:25;;;;;;;;;;;;;;;;;;5084046;28;20580;-61
2024/02/28 00:27:51;;;;;;;;;;;;;;;;;;5080506;28;19927;-66
2024/02/28 00:30:16;;;;;;;;;;;;;;;;;;5082556;28;19912;-61
2024/02/28 00:32:41;;;;;;;;;;;;;;;;;;5087561;28;19912;-59
2024/02/28 00:35:06;;;;;;;;;;;;;;;;;;5082044;28;19927;-62
2024/02/28 00:37:31;;;;;;;;;;;;;;;;;;5087767;28;19912;-61
2024/02/28 00:39:57;;;;;;;;;;;;;;;;;;5084490;28;19920;-62
2024/02/28 00:42:22;;;;;;;;;;;;;;;;;;5092244;28;19924;-61
2024/02/28 00:44:47;;;;;;;;;;;;;;;;;;5086436;28;20361;-61
2024/02/28 00:47:12;;;;;;;;;;;;;;;;;;5095628;28;19927;-60
2024/02/28 00:49:37;;;;;;;;;;;;;;;;;;5089196;28;19923;-61
2024/02/28 00:52:02;;;;;;;;;;;;;;;;;;5081998;28;20005;-61
2024/02/28 00:54:27;;;;;;;;;;;;;;;;;;5089999;28;19965;-61
2024/02/28 00:56:53;;;;;;;;;;;;;;;;;;5086925;28;19912;-61
2024/02/28 00:59:18;;;;;;;;;;;;;;;;;;5086872;28;20326;-61
2024/02/28 01:01:43;;;;;;;;;;;;;;;;;;5084387;28;19970;-61
2024/02/28 01:04:08;;;;;;;;;;;;;;;;;;5081782;28;19919;-61
2024/02/28 01:06:33;;;;;;;;;;;;;;;;;;5080481;28;19917;-61
2024/02/28 01:08:58;;;;;;;;;;;;;;;;;;5085627;28;19912;-61
2024/02/28 01:11:23;;;;;;;;;;;;;;;;;;5086759;28;19913;-61
2024/02/28 01:13:48;;;;;;;;;;;;;;;;;;5094070;28;20008;-61
2024/02/28 01:16:14;;;;;;;;;;;;;;;;;;5083960;28;19920;-61
2024/02/28 01:18:39;;;;;;;;;;;;;;;;;;5088021;28;20369;-61
2024/02/28 01:21:04;;;;;;;;;;;;;;;;;;5087415;28;20450;-61
2024/02/28 01:23:29;;;;;;;;;;;;;;;;;;5089181;28;19912;-61
2024/02/28 01:25:54;;;;;;;;;;;;;;;;;;5085028;28;19936;-61
2024/02/28 01:28:19;;;;;;;;;;;;;;;;;;5084853;28;19920;-61
2024/02/28 01:30:44;;;;;;;;;;;;;;;;;;5092062;28;19916;-61
2024/02/28 01:33:09;;;;;;;;;;;;;;;;;;5087008;28;19916;-62
2024/02/28 01:35:35;;;;;;;;;;;;;;;;;;5090728;28;19959;-61
2024/02/28 01:38:00;;;;;;;;;;;;;;;;;;5090166;28;19920;-62
2024/02/28 01:40:25;;;;;;;;;;;;;;;;;;5086577;28;20003;-61
2024/02/28 01:42:50;;;;;;;;;;;;;;;;;;5089795;28;20234;-62
2024/02/28 01:45:15;;;;;;;;;;;;;;;;;;5090397;28;19912;-62
2024/02/28 01:47:40;;;;;;;;;;;;;;;;;;5088849;28;19916;-62
2024/02/28 01:50:06;;;;;;;;;;;;;;;;;;5083669;28;19948;-62
2024/02/28 01:52:31;;;;;;;;;;;;;;;;;;5090234;28;19980;-62
2024/02/28 01:54:56;;;;;;;;;;;;;;;;;;5085656;28;20304;-62
2024/02/28 01:57:21;;;;;;;;;;;;;;;;;;5090558;28;19912;-62
2024/02/28 01:59:46;;;;;;;;;;;;;;;;;;5081548;28;20365;-62
2024/02/28 02:02:11;;;;;;;;;;;;;;;;;;5089709;28;19919;-62
2024/02/28 02:04:36;;;;;;;;;;;;;;;;;;5089350;28;19916;-63
2024/02/28 02:07:01;;;;;;;;;;;;;;;;;;5088001;28;20350;-62
2024/02/28 02:09:27;;;;;;;;;;;;;;;;;;5085217;28;19966;-62
2024/02/28 02:11:52;;;;;;;;;;;;;;;;;;5081986;28;19958;-62
2024/02/28 02:14:17;;;;;;;;;;;;;;;;;;5089517;28;19920;-63
2024/02/28 02:16:42;;;;;;;;;;;;;;;;;;5083962;28;19927;-62
2024/02/28 02:19:07;;;;;;;;;;;;;;;;;;5087576;28;19927;-62
2024/02/28 02:21:32;;;;;;;;;;;;;;;;;;5091201;28;19931;-62
2024/02/28 02:23:57;;;;;;;;;;;;;;;;;;5092319;28;20301;-62
2024/02/28 02:26:23;;;;;;;;;;;;;;;;;;5087959;28;19913;-62
2024/02/28 02:28:48;;;;;;;;;;;;;;;;;;5086681;28;19912;-62
2024/02/28 02:31:13;;;;;;;;;;;;;;;;;;5082351;28;20395;-62
2024/02/28 02:33:38;;;;;;;;;;;;;;;;;;5084740;28;19923;-62
2024/02/28 02:36:03;;;;;;;;;;;;;;;;;;5086682;28;19912;-61
2024/02/28 02:38:28;;;;;;;;;;;;;;;;;;5090132;28;19970;-62
2024/02/28 02:40:53;;;;;;;;;;;;;;;;;;5083856;28;20317;-62
2024/02/28 02:43:19;;;;;;;;;;;;;;;;;;5088705;28;19928;-62
2024/02/28 02:45:44;;;;;;;;;;;;;;;;;;5085552;28;20037;-62
2024/02/28 02:48:09;;;;;;;;;;;;;;;;;;5086598;28;19923;-62
2024/02/28 02:50:34;;;;;;;;;;;;;;;;;;5086416;28;19995;-62
2024/02/28 02:52:59;;;;;;;;;;;;;;;;;;5088817;28;19936;-62
2024/02/28 02:55:24;;;;;;;;;;;;;;;;;;5087417;28;19916;-62
2024/02/28 02:57:49;;;;;;;;;;;;;;;;;;5088305;28;20284;-62
2024/02/28 03:00:15;;;;;;;;;;;;;;;;;;5085788;28;20273;-62
2024/02/28 03:02:40;;;;;;;;;;;;;;;;;;5082059;28;20311;-62
2024/02/28 03:05:05;;;;;;;;;;;;;;;;;;5086157;28;20245;-62
2024/02/28 03:07:30;;;;;;;;;;;;;;;;;;5090925;28;20354;-62
2024/02/28 03:09:55;;;;;;;;;;;;;;;;;;5086219;28;19918;-62
2024/02/28 03:12:21;;;;;;;;;;;;;;;;;;5079429;28;20019;-62
2024/02/28 03:14:46;;;;;;;;;;;;;;;;;;5087639;28;20053;-62
2024/02/28 03:17:11;;;;;;;;;;;;;;;;;;5086062;28;19924;-62
2024/02/28 03:19:37;;;;;;;;;;;;;;;;;;5081375;28;19966;-62
2024/02/28 03:22:03;;;;;;;;;;;;;;;;;;5084254;28;19947;-62
2024/02/28 03:24:28;;;;;;;;;;;;;;;;;;5091117;28;19916;-62
2024/02/28 03:26:53;;;;;;;;;;;;;;;;;;5087059;28;20349;-62
2024/02/28 03:29:18;;;;;;;;;;;;;;;;;;5087414;28;20430;-62
2024/02/28 03:31:43;;;;;;;;;;;;;;;;;;5084541;28;20311;-62
2024/02/28 03:34:09;;;;;;;;;;;;;;;;;;5089516;28;20673;-56
2024/02/28 03:36:34;;;;;;;;;;;;;;;;;;5083503;28;19924;-56
2024/02/28 03:39:00;;;;;;;;;;;;;;;;;;5087172;28;19917;-56
2024/02/28 03:41:25;;;;;;;;;;;;;;;;;;5088305;28;19985;-56
2024/02/28 03:43:50;;;;;;;;;;;;;;;;;;5089141;28;19912;-56
2024/02/28 03:46:15;;;;;;;;;;;;;;;;;;5084167;28;19957;-57
2024/02/28 03:48:40;;;;;;;;;;;;;;;;;;5084474;28;19993;-57
2024/02/28 03:51:05;;;;;;;;;;;;;;;;;;5088614;28;19925;-57
2024/02/28 03:53:30;;;;;;;;;;;;;;;;;;5082056;28;19975;-56
2024/02/28 03:55:56;;;;;;;;;;;;;;;;;;5088792;28;19920;-56
2024/02/28 03:58:21;;;;;;;;;;;;;;;;;;5084352;28;20075;-57
2024/02/28 04:00:46;;;;;;;;;;;;;;;;;;5084418;28;19955;-56
2024/02/28 04:03:11;;;;;;;;;;;;;;;;;;5083544;28;19919;-56
2024/02/28 04:05:36;;;;;;;;;;;;;;;;;;5083644;28;19919;-56
2024/02/28 04:08:01;;;;;;;;;;;;;;;;;;5086130;28;20037;-57
2024/02/28 04:10:26;;;;;;;;;;;;;;;;;;5085714;28;19916;-56
2024/02/28 04:12:51;;;;;;;;;;;;;;;;;;5085089;28;19920;-58
2024/02/28 04:15:17;;;;;;;;;;;;;;;;;;5081063;28;19912;-56
2024/02/28 04:17:42;;;;;;;;;;;;;;;;;;5082292;28;20292;-57
2024/02/28 04:20:07;;;;;;;;;;;;;;;;;;5083313;28;19919;-57
2024/02/28 04:22:33;;;;;;;;;;;;;;;;;;5086689;28;19965;-56
2024/02/28 04:24:58;;;;;;;;;;;;;;;;;;5080326;28;19913;-56
2024/02/28 04:27:23;;;;;;;;;;;;;;;;;;5084216;28;19958;-56
2024/02/28 04:29:48;;;;;;;;;;;;;;;;;;5082245;28;19919;-55
2024/02/28 04:32:13;;;;;;;;;;;;;;;;;;5090446;28;20425;-56
2024/02/28 04:34:38;;;;;;;;;;;;;;;;;;5084892;28;20414;-57
2024/02/28 04:37:04;;;;;;;;;;;;;;;;;;5083478;28;20372;-55
2024/02/28 04:39:29;;;;;;;;;;;;;;;;;;5085666;28;20015;-56
2024/02/28 04:41:54;;;;;;;;;;;;;;;;;;5082355;28;20387;-57
2024/02/28 04:44:19;;;;;;;;;;;;;;;;;;5083839;28;20558;-56
2024/02/28 04:46:44;;;;;;;;;;;;;;;;;;5084782;28;20846;-56
2024/02/28 04:49:09;;;;;;;;;;;;;;;;;;5082503;28;20380;-57
2024/02/28 04:51:34;;;;;;;;;;;;;;;;;;5082817;28;19918;-57
2024/02/28 04:54:00;;;;;;;;;;;;;;;;;;5086099;28;19920;-56
2024/02/28 04:56:25;;;;;;;;;;;;;;;;;;5084245;28;19916;-57
2024/02/28 04:58:50;;;;;;;;;;;;;;;;;;5088160;28;19951;-57
2024/02/28 05:01:16;;;;;;;;;;;;;;;;;;5082348;28;19916;-56
2024/02/28 05:03:41;;;;;;;;;;;;;;;;;;5087152;28;19912;-56
2024/02/28 05:06:06;;;;;;;;;;;;;;;;;;5084559;28;19915;-56
2024/02/28 05:08:31;;;;;;;;;;;;;;;;;;5084602;28;19920;-56
2024/02/28 05:10:56;;;;;;;;;;;;;;;;;;5083484;28;20003;-55
2024/02/28 05:13:22;;;;;;;;;;;;;;;;;;5085769;28;19916;-57
2024/02/28 05:15:48;;;;;;;;;;;;;;;;;;5086670;28;19920;-56
2024/02/28 05:18:13;;;;;;;;;;;;;;;;;;5084320;28;19924;-56
2024/02/28 05:20:38;;;;;;;;;;;;;;;;;;5078269;28;19919;-55
2024/02/28 05:23:03;;;;;;;;;;;;;;;;;;5079486;28;19950;-56
2024/02/28 05:25:28;;;;;;;;;;;;;;;;;;5084891;28;19950;-57
2024/02/28 05:27:53;;;;;;;;;;;;;;;;;;5085130;28;20420;-55
2024/02/28 05:30:19;;;;;;;;;;;;;;;;;;5079339;28;19923;-56
2024/02/28 05:32:44;;;;;;;;;;;;;;;;;;5082715;28;20027;-56
2024/02/28 05:35:11;;;;;;;;;;;;;;;;;;5080446;28;19923;-57
2024/02/28 05:37:36;;;;;;;;;;;;;;;;;;5074883;28;19966;-57
2024/02/28 05:40:01;;;;;;;;;;;;;;;;;;5085225;28;20307;-56
2024/02/28 05:42:28;;;;;;;;;;;;;;;;;;5084669;28;19920;-57
2024/02/28 05:44:53;;;;;;;;;;;;;;;;;;5081718;28;19912;-54
2024/02/28 05:47:19;;;;;;;;;;;;;;;;;;5083843;28;19936;-56
2024/02/28 05:49:44;;;;;;;;;;;;;;;;;;5085046;28;19916;-56
2024/02/28 05:52:09;;;;;;;;;;;;;;;;;;5084052;28;19916;-55
2024/02/28 05:54:34;;;;;;;;;;;;;;;;;;5086929;28;19912;-62
2024/02/28 05:56:59;;;;;;;;;;;;;;;;;;5085110;28;19916;-62
2024/02/28 05:59:25;;;;;;;;;;;;;;;;;;5081443;28;19912;-62
2024/02/28 06:01:50;;;;;;;;;;;;;;;;;;5087913;28;19920;-62
2024/02/28 06:04:15;;;;;;;;;;;;;;;;;;5084126;28;20387;-62
2024/02/28 06:06:40;;;;;;;;;;;;;;;;;;5086977;28;19912;-63
2024/02/28 06:09:06;;;;;;;;;;;;;;;;;;5082454;28;19913;-62
2024/02/28 06:11:33;;;;;;;;;;;;;;;;;;5086419;28;19916;-62
2024/02/28 06:13:58;;;;;;;;;;;;;;;;;;5081502;28;19912;-62
2024/02/28 06:16:23;;;;;;;;;;;;;;;;;;5089398;28;19912;-62
2024/02/28 06:18:48;;;;;;;;;;;;;;;;;;5087618;28;19916;-63
2024/02/28 06:21:14;;;;;;;;;;;;;;;;;;5081067;28;19920;-62
2024/02/28 06:23:39;;;;;;;;;;;;;;;;;;5090545;28;19916;-63
2024/02/28 06:26:04;;;;;;;;;;;;;;;;;;5085413;28;19965;-62
2024/02/28 06:28:29;;;;;;;;;;;;;;;;;;5084879;28;19913;-62
2024/02/28 06:30:54;;;;;;;;;;;;;;;;;;5087309;28;19912;-61
2024/02/28 06:33:19;;;;;;;;;;;;;;;;;;5085375;28;19920;-61
2024/02/28 06:35:44;;;;;;;;;;;;;;;;;;5085342;28;19917;-62
2024/02/28 06:38:09;;;;;;;;;;;;;;;;;;5083935;28;19917;-62
2024/02/28 06:40:35;;;;;;;;;;;;;;;;;;5086849;28;20007;-62
2024/02/28 06:43:00;;;;;;;;;;;;;;;;;;5082694;28;20360;-62
2024/02/28 06:45:25;;;;;;;;;;;;;;;;;;5084082;28;19912;-62
2024/02/28 06:47:50;;;;;;;;;;;;;;;;;;5085467;28;20010;-62
2024/02/28 06:50:16;;;;;;;;;;;;;;;;;;5081672;28;20377;-62
2024/02/28 06:52:41;;;;;;;;;;;;;;;;;;5085911;28;19943;-62
2024/02/28 06:55:10;;;;;;;;;;;;;;;;;;5084998;28;19912;-61
2024/02/28 06:57:35;;;;;;;;;;;;;;;;;;5083670;28;19913;-62
2024/02/28 07:00:00;;;;;;;;;;;;;;;;;;5084180;28;19912;-62
2024/02/28 07:02:26;;;;;;;;;;;;;;;;;;5085334;28;19965;-62
2024/02/28 07:04:51;;;;;;;;;;;;;;;;;;5085128;28;19957;-56
2024/02/28 07:07:16;;;;;;;;;;;;;;;;;;5082098;28;19916;-56
2024/02/28 07:09:41;;;;;;;;;;;;;;;;;;5082351;28;20003;-57
2024/02/28 07:12:06;;;;;;;;;;;;;;;;;;5088505;28;19943;-56
2024/02/28 07:14:31;;;;;;;;;;;;;;;;;;5082389;28;19927;-56
2024/02/28 07:16:56;;;;;;;;;;;;;;;;;;5086661;28;19911;-57
2024/02/28 07:19:22;;;;;;;;;;;;;;;;;;5085084;28;20003;-57
2024/02/28 07:21:47;;;;;;;;;;;;;;;;;;5082568;28;19923;-57
2024/02/28 07:24:12;;;;;;;;;;;;;;;;;;5085593;28;19935;-58
2024/02/28 07:26:37;;;;;;;;;;;;;;;;;;5086587;28;20352;-56
2024/02/28 07:29:03;;;;;;;;;;;;;;;;;;5079965;28;19919;-56
2024/02/28 07:31:28;;;;;;;;;;;;;;;;;;5085345;28;20238;-54
2024/02/28 07:33:53;;;;;;;;;;;;;;;;;;5084223;28;19920;-58
2024/02/28 07:36:18;;;;;;;;;;;;;;;;;;5085397;28;20005;-57
2024/02/28 07:38:43;;;;;;;;;;;;;;;;;;5086330;28;19912;-58
2024/02/28 07:41:08;;;;;;;;;;;;;;;;;;5084908;28;19928;-55
2024/02/28 07:43:37;;;;;;;;;;;;;;;;;;5081368;28;19943;-57
2024/02/28 07:46:02;;;;;;;;;;;;;;;;;;5087718;28;20292;-59
2024/02/28 07:48:27;;;;;;;;;;;;;;;;;;5087416;28;20417;-56
2024/02/28 07:50:52;;;;;;;;;;;;;;;;;;5081750;28;22032;-58
2024/02/28 07:53:17;;;;;;;;;;;;;;;;;;5088230;28;20830;-57
2024/02/28 07:55:42;;;;;;;;;;;;;;;;;;5088610;28;19912;-56
2024/02/28 07:58:09;;;;;;;;;;;;;;;;;;5083152;28;19935;-56
2024/02/28 08:00:34;;;;;;;;;;;;;;;;;;5089570;28;19939;-57
2024/02/28 08:02:59;;;;;;;;;;;;;;;;;;5084317;28;20466;-57
2024/02/28 08:05:24;;;;;;;;;;;;;;;;;;5082678;28;20025;-54
2024/02/28 08:07:49;;;;;;;;;;;;;;;;;;5083779;28;19927;-56
2024/02/28 08:10:14;;;;;;;;;;;;;;;;;;5085883;28;19934;-57
2024/02/28 08:12:40;;;;;;;;;;;;;;;;;;5080111;28;19920;-57
2024/02/28 08:15:05;;;;;;;;;;;;;;;;;;5081431;28;19918;-56
2024/02/28 08:17:31;;;;;;;;;;;;;;;;;;5089193;28;19912;-57
2024/02/28 08:19:56;;;;;;;;;;;;;;;;;;5081660;28;20019;-57
2024/02/28 08:22:21;;;;;;;;;;;;;;;;;;5081498;28;20397;-56
2024/02/28 08:24:46;;;;;;;;;;;;;;;;;;5083051;28;20429;-58
2024/02/28 08:27:11;;;;;;;;;;;;;;;;;;5081471;28;19912;-58
2024/02/28 08:29:38;;;;;;;;;;;;;;;;;;5084790;28;19912;-57
2024/02/28 08:32:03;;;;;;;;;;;;;;;;;;5076026;28;20470;-57
2024/02/28 08:34:28;;;;;;;;;;;;;;;;;;5084999;28;19912;-57
2024/02/28 08:36:53;;;;;;;;;;;;;;;;;;5081217;28;20431;-58
2024/02/28 08:39:18;;;;;;;;;;;;;;;;;;5082579;28;20454;-57
2024/02/28 08:41:44;;;;;;;;;;;;;;;;;;5080316;28;19921;-57
2024/02/28 08:44:09;;;;;;;;;;;;;;;;;;5084496;28;20002;-58
2024/02/28 08:46:34;;;;;;;;;;;;;;;;;;5086091;28;19919;-57
2024/02/28 08:48:59;;;;;;;;;;;;;;;;;;5082440;28;19922;-57
2024/02/28 08:51:24;;;;;;;;;;;;;;;;;;5080456;28;20392;-57
2024/02/28 08:53:52;;;;;;;;;;;;;;;;;;5086437;28;20372;-56
2024/02/28 08:56:17;;;;;;;;;;;;;;;;;;5090087;28;20317;-57
2024/02/28 08:58:44;;;;;;;;;;;;;;;;;;5080236;28;20373;-59
2024/02/28 09:01:09;;;;;;;;;;;;;;;;;;5084145;28;19951;-58
2024/02/28 09:03:34;;;;;;;;;;;;;;;;;;5086156;28;19954;-57
2024/02/28 09:05:59;;;;;;;;;;;;;;;;;;5083576;28;19969;-57
2024/02/28 09:08:24;;;;;;;;;;;;;;;;;;5086587;28;19958;-57
2024/02/28 09:10:49;;;;;;;;;;;;;;;;;;5082420;28;19923;-57
2024/02/28 09:13:15;;;;;;;;;;;;;;;;;;5082235;28;19913;-57
2024/02/28 09:15:40;;;;;;;;;;;;;;;;;;5081247;28;19944;-57
2024/02/28 09:18:05;;;;;;;;;;;;;;;;;;5086290;28;19998;-57
2024/02/28 09:20:30;;;;;;;;;;;;;;;;;;5090164;28;20375;-58
2024/02/28 09:22:55;;;;;;;;;;;;;;;;;;5082642;28;19916;-58
2024/02/28 09:25:21;;;;;;;;;;;;;;;;;;5089922;28;19912;-57
2024/02/28 09:27:46;;;;;;;;;;;;;;;;;;5088835;28;19965;-56
2024/02/28 09:30:11;;;;;;;;;;;;;;;;;;5088809;28;20416;-57
2024/02/28 09:32:36;;;;;;;;;;;;;;;;;;5092562;28;20472;-56
2024/02/28 09:35:01;;;;;;;;;;;;;;;;;;5094220;28;20311;-57
2024/02/28 09:37:28;;;;;;;;;;;;;;;;;;5093293;28;20446;-57
2024/02/28 09:39:53;;;;;;;;;;;;;;;;;;5089295;28;19924;-57
2024/02/28 09:42:18;;;;;;;;;;;;;;;;;;5090261;28;19935;-57
2024/02/28 09:44:43;;;;;;;;;;;;;;;;;;5088328;28;19924;-57
2024/02/28 09:47:08;;;;;;;;;;;;;;;;;;5092324;28;19922;-58
2024/02/28 09:49:33;;;;;;;;;;;;;;;;;;5085550;28;19913;-58
2024/02/28 09:51:58;;;;;;;;;;;;;;;;;;5092640;28;20364;-57
2024/02/28 09:54:23;;;;;;;;;;;;;;;;;;5092635;28;20383;-58
2024/02/28 09:56:49;;;;;;;;;;;;;;;;;;5095449;28;20472;-57
2024/02/28 09:59:14;;;;;;;;;;;;;;;;;;5082145;28;20600;-59
2024/02/28 10:01:39;;;;;;;;;;;;;;;;;;5092776;28;19923;-57
2024/02/28 10:04:04;;;;;;;;;;;;;;;;;;5090761;28;19916;-58
2024/02/28 10:06:29;;;;;;;;;;;;;;;;;;5086222;28;19924;-58
2024/02/28 10:08:54;;;;;;;;;;;;;;;;;;5095340;28;21101;-58
2024/02/28 10:11:20;;;;;;;;;;;;;;;;;;5083014;28;19969;-58
2024/02/28 10:13:45;;;;;;;;;;;;;;;;;;5088188;28;20003;-58
2024/02/28 10:16:11;;;;;;;;;;;;;;;;;;5081860;28;19999;-58
2024/02/28 10:18:36;;;;;;;;;;;;;;;;;;5087533;28;19912;-58
2024/02/28 10:21:01;;;;;;;;;;;;;;;;;;5085375;28;20365;-55
2024/02/28 10:23:27;;;;;;;;;;;;;;;;;;5086033;28;19912;-56
2024/02/28 10:25:52;;;;;;;;;;;;;;;;;;5085158;28;20576;-56
2024/02/28 10:28:17;;;;;;;;;;;;;;;;;;5089806;28;20389;-55
2024/02/28 10:30:45;;;;;;;;;;;;;;;;;;5084219;28;19942;-56
2024/02/28 10:33:11;;;;;;;;;;;;;;;;;;5086385;28;20284;-57
2024/02/28 10:35:36;;;;;;;;;;;;;;;;;;5090243;28;19912;-55
2024/02/28 10:38:01;;;;;;;;;;;;;;;;;;5080743;28;20377;-55
2024/02/28 10:40:26;;;;;;;;;;;;;;;;;;5081680;28;20366;-55
2024/02/28 10:42:51;;;;;;;;;;;;;;;;;;5083634;28;20291;-55
2024/02/28 10:45:17;;;;;;;;;;;;;;;;;;5083906;28;19916;-55
2024/02/28 10:47:42;;;;;;;;;;;;;;;;;;5089802;28;20584;-55
2024/02/28 10:50:07;;;;;;;;;;;;;;;;;;5092229;28;19943;-55
2024/02/28 10:52:33;;;;;;;;;;;;;;;;;;5082194;28;19926;-56
2024/02/28 10:55:00;;;;;;;;;;;;;;;;;;5088360;28;20434;-55
2024/02/28 10:57:25;;;;;;;;;;;;;;;;;;5086694;28;19916;-56
2024/02/28 10:59:50;;;;;;;;;;;;;;;;;;5085818;28;19978;-56
2024/02/28 11:02:16;;;;;;;;;;;;;;;;;;5090126;28;19927;-53
2024/02/28 11:04:41;;;;;;;;;;;;;;;;;;5084640;28;19919;-55
2024/02/28 11:07:06;;;;;;;;;;;;;;;;;;5083693;28;20261;-55
2024/02/28 11:09:32;;;;;;;;;;;;;;;;;;5087778;28;19926;-55
2024/02/28 11:11:57;;;;;;;;;;;;;;;;;;5087470;28;20296;-56
2024/02/28 11:14:24;;;;;;;;;;;;;;;;;;5080982;28;19920;-55
2024/02/28 11:16:49;;;;;;;;;;;;;;;;;;5086089;28;19999;-55
2024/02/28 11:19:14;;;;;;;;;;;;;;;;;;5087664;28;19991;-56
2024/02/28 11:21:40;;;;;;;;;;;;;;;;;;5084288;28;19946;-56
2024/02/28 11:24:05;;;;;;;;;;;;;;;;;;5086169;28;19920;-55
2024/02/28 11:26:30;;;;;;;;;;;;;;;;;;5083307;28;19912;-55
2024/02/28 11:28:55;;;;;;;;;;;;;;;;;;5083503;28;19912;-56
2024/02/28 11:31:20;;;;;;;;;;;;;;;;;;5081212;28;20001;-58
2024/02/28 11:33:45;;;;;;;;;;;;;;;;;;5089463;28;19943;-56
2024/02/28 11:36:10;;;;;;;;;;;;;;;;;;5083408;28;20363;-55
2024/02/28 11:38:39;;;;;;;;;;;;;;;;;;5084255;28;19912;-56
2024/02/28 11:41:04;;;;;;;;;;;;;;;;;;5081469;28;20377;-55
2024/02/28 11:43:29;;;;;;;;;;;;;;;;;;5083876;28;19916;-55
2024/02/28 11:45:55;;;;;;;;;;;;;;;;;;5083871;28;20300;-55
2024/02/28 11:48:20;;;;;;;;;;;;;;;;;;5084410;28;20352;-53
2024/02/28 11:50:45;;;;;;;;;;;;;;;;;;5087712;28;19919;-56
2024/02/28 11:53:10;;;;;;;;;;;;;;;;;;5084876;28;19916;-58
2024/02/28 11:55:38;;;;;;;;;;;;;;;;;;5084889;28;19920;-58
2024/02/28 11:58:03;;;;;;;;;;;;;;;;;;5087531;28;19920;-58
2024/02/28 12:00:28;;;;;;;;;;;;;;;;;;5086378;28;20041;-57
2024/02/28 12:02:53;;;;;;;;;;;;;;;;;;5089131;28;19966;-56
2024/02/28 12:05:18;;;;;;;;;;;;;;;;;;5083203;28;19942;-55
2024/02/28 12:07:44;;;;;;;;;;;;;;;;;;5083586;28;19947;-56
2024/02/28 12:10:09;;;;;;;;;;;;;;;;;;5085919;28;19944;-55
2024/02/28 12:12:35;;;;;;;;;;;;;;;;;;5087909;28;19912;-55
2024/02/28 12:15:00;;;;;;;;;;;;;;;;;;5082025;28;19995;-54
2024/02/28 12:17:26;;;;;;;;;;;;;;;;;;5085942;28;19919;-55
2024/02/28 12:19:51;;;;;;;;;;;;;;;;;;5080833;28;20022;-56
2024/02/28 12:22:16;;;;;;;;;;;;;;;;;;5082784;28;19916;-55
2024/02/28 12:24:41;;;;;;;;;;;;;;;;;;5082316;28;19940;-55
2024/02/28 12:27:06;;;;;;;;;;;;;;;;;;5082018;28;19912;-55
2024/02/28 12:29:32;;;;;;;;;;;;;;;;;;5082761;28;19921;-55
2024/02/28 12:31:57;;;;;;;;;;;;;;;;;;5084053;28;19931;-56
2024/02/28 12:34:22;;;;;;;;;;;;;;;;;;5086136;28;19943;-56
2024/02/28 12:36:47;;;;;;;;;;;;;;;;;;5083261;28;19919;-56
2024/02/28 12:39:12;;;;;;;;;;;;;;;;;;5082841;28;21822;-56
2024/02/28 12:41:38;;;;;;;;;;;;;;;;;;5077407;28;20289;-55
2024/02/28 12:44:03;;;;;;;;;;;;;;;;;;5083450;28;19912;-56
2024/02/28 12:46:28;;;;;;;;;;;;;;;;;;5082397;28;19916;-55
2024/02/28 12:48:53;;;;;;;;;;;;;;;;;;5083910;28;20363;-56
2024/02/28 12:51:18;;;;;;;;;;;;;;;;;;5084489;28;20344;-55
2024/02/28 12:53:45;;;;;;;;;;;;;;;;;;5083223;28;20086;-55
2024/02/28 12:56:11;;;;;;;;;;;;;;;;;;5081055;28;20382;-62
2024/02/28 12:58:36;;;;;;;;;;;;;;;;;;5084191;28;19913;-60
2024/02/28 13:01:01;;;;;;;;;;;;;;;;;;5079590;28;19962;-62
2024/02/28 13:03:26;;;;;;;;;;;;;;;;;;5088089;28;19961;-62
2024/02/28 13:05:51;;;;;;;;;;;;;;;;;;5080711;28;22007;-62
2024/02/28 13:08:16;;;;;;;;;;;;;;;;;;5077138;28;19912;-62
2024/02/28 13:10:41;;;;;;;;;;;;;;;;;;5081726;28;19912;-62
2024/02/28 13:13:07;;;;;;;;;;;;;;;;;;5082608;28;20006;-62
2024/02/28 13:15:32;;;;;;;;;;;;;;;;;;5083028;28;19920;-62
2024/02/28 13:17:57;;;;;;;;;;;;;;;;;;5082538;28;19916;-61
2024/02/28 13:20:22;;;;;;;;;;;;;;;;;;5084184;28;20266;-62
2024/02/28 13:22:47;;;;;;;;;;;;;;;;;;5078687;28;19948;-62
2024/02/28 13:25:14;;;;;;;;;;;;;;;;;;5087257;28;20415;-62
2024/02/28 13:27:39;;;;;;;;;;;;;;;;;;5086248;28;20300;-63
2024/02/28 13:30:04;;;;;;;;;;;;;;;;;;5081526;28;19912;-62
2024/02/28 13:32:29;;;;;;;;;;;;;;;;;;5083880;28;19916;-62
2024/02/28 13:34:55;;;;;;;;;;;;;;;;;;5081092;28;19918;-62
2024/02/28 13:37:20;;;;;;;;;;;;;;;;;;5083396;28;20390;-62
2024/02/28 13:39:45;;;;;;;;;;;;;;;;;;5081300;28;20422;-62
2024/02/28 13:42:11;;;;;;;;;;;;;;;;;;5084761;28;19946;-62
2024/02/28 13:44:40;;;;;;;;;;;;;;;;;;5088888;28;19966;-62
2024/02/28 13:47:05;;;;;;;;;;;;;;;;;;5084160;28;19998;-63
2024/02/28 13:49:30;;;;;;;;;;;;;;;;;;5086584;28;19935;-62
2024/02/28 13:51:56;;;;;;;;;;;;;;;;;;5084392;28;19916;-62
2024/02/28 13:54:21;;;;;;;;;;;;;;;;;;5083703;28;19912;-62
2024/02/28 13:56:46;;;;;;;;;;;;;;;;;;5084649;28;19912;-62
2024/02/28 13:59:11;;;;;;;;;;;;;;;;;;5086593;28;19964;-63
2024/02/28 14:01:37;;;;;;;;;;;;;;;;;;5083516;28;19961;-62
2024/02/28 14:04:05;;;;;;;;;;;;;;;;;;5083823;28;19915;-57
2024/02/28 14:06:30;;;;;;;;;;;;;;;;;;5079248;28;20328;-62
2024/02/28 14:08:55;;;;;;;;;;;;;;;;;;5084238;28;19999;-62
2024/02/28 14:11:20;;;;;;;;;;;;;;;;;;5083887;28;19908;-61
2024/02/28 14:13:45;;;;;;;;;;;;;;;;;;5084355;28;19916;-61
2024/02/28 14:16:10;;;;;;;;;;;;;;;;;;5078046;28;19916;-62
2024/02/28 14:18:35;;;;;;;;;;;;;;;;;;5083672;28;20003;-62
2024/02/28 14:21:02;;;;;;;;;;;;;;;;;;5083329;28;19908;-62
2024/02/28 14:23:27;;;;;;;;;;;;;;;;;;5084152;28;19912;-62
2024/02/28 14:25:52;;;;;;;;;;;;;;;;;;5085895;28;19917;-63
2024/02/28 14:28:19;;;;;;;;;;;;;;;;;;5076373;28;19912;-63
2024/02/28 14:30:45;;;;;;;;;;;;;;;;;;5085093;28;19919;-63
2024/02/28 14:33:10;;;;;;;;;;;;;;;;;;5088267;28;20500;-63
2024/02/28 14:35:38;;;;;;;;;;;;;;;;;;5084663;28;19913;-63
2024/02/28 14:38:04;;;;;;;;;;;;;;;;;;5082153;28;19908;-63
2024/02/28 14:40:29;;;;;;;;;;;;;;;;;;5087182;28;19926;-63
2024/02/28 14:42:54;;;;;;;;;;;;;;;;;;5084082;28;19939;-63
2024/02/28 14:45:19;;;;;;;;;;;;;;;;;;5087008;28;19926;-63
2024/02/28 14:47:44;;;;;;;;;;;;;;;;;;5086367;28;20061;-63
2024/02/28 14:50:09;;;;;;;;;;;;;;;;;;5084965;28;20014;-63
2024/02/28 14:52:35;;;;;;;;;;;;;;;;;;5083673;28;19951;-63
2024/02/28 14:55:01;;;;;;;;;;;;;;;;;;5090829;28;19935;-63
2024/02/28 14:57:26;;;;;;;;;;;;;;;;;;5080227;28;19927;-63
2024/02/28 14:59:51;;;;;;;;;;;;;;;;;;5082071;28;19920;-63
2024/02/28 15:02:16;;;;;;;;;;;;;;;;;;5089855;28;19916;-63
2024/02/28 15:04:42;;;;;;;;;;;;;;;;;;5081346;28;20365;-63
2024/02/28 15:07:07;;;;;;;;;;;;;;;;;;5079279;28;19912;-62
2024/02/28 15:09:33;;;;;;;;;;;;;;;;;;5087231;28;19920;-63
2024/02/28 15:11:58;;;;;;;;;;;;;;;;;;5086479;28;19920;-63
2024/02/28 15:14:23;;;;;;;;;;;;;;;;;;5082170;28;20011;-63
2024/02/28 15:16:49;;;;;;;;;;;;;;;;;;5085816;28;19923;-64
2024/02/28 15:19:14;;;;;;;;;;;;;;;;;;5082602;28;20386;-63
2024/02/28 15:21:39;;;;;;;;;;;;;;;;;;5080500;28;20363;-63
2024/02/28 15:24:04;;;;;;;;;;;;;;;;;;5085935;28;20003;-63
2024/02/28 15:26:29;;;;;;;;;;;;;;;;;;5085854;28;19999;-63
2024/02/28 15:28:54;;;;;;;;;;;;;;;;;;5079430;28;19912;-63
2024/02/28 15:31:21;;;;;;;;;;;;;;;;;;5083326;28;20373;-63
2024/02/28 15:33:46;;;;;;;;;;;;;;;;;;5083664;28;20373;-62
2024/02/28 15:36:11;;;;;;;;;;;;;;;;;;5080685;28;19922;-63
2024/02/28 15:38:36;;;;;;;;;;;;;;;;;;5083749;28;19912;-62
2024/02/28 15:41:01;;;;;;;;;;;;;;;;;;5088332;28;20308;-63
2024/02/28 15:43:27;;;;;;;;;;;;;;;;;;5085323;28;19912;-63
2024/02/28 15:45:52;;;;;;;;;;;;;;;;;;5082827;28;19920;-63
2024/02/28 15:48:18;;;;;;;;;;;;;;;;;;5089105;28;19920;-63
2024/02/28 15:50:43;;;;;;;;;;;;;;;;;;5079578;28;20474;-63
2024/02/28 15:53:08;;;;;;;;;;;;;;;;;;5085962;28;19919;-63
2024/02/28 15:55:33;;;;;;;;;;;;;;;;;;5079948;28;19920;-61
2024/02/28 15:57:59;;;;;;;;;;;;;;;;;;5086256;28;19976;-62
2024/02/28 16:00:24;;;;;;;;;;;;;;;;;;5076984;28;20387;-63
2024/02/28 16:02:49;;;;;;;;;;;;;;;;;;5088906;28;19920;-63
2024/02/28 16:05:17;;;;;;;;;;;;;;;;;;5083545;28;20008;-63
2024/02/28 16:07:42;;;;;;;;;;;;;;;;;;5083605;28;19919;-63
2024/02/28 16:10:07;;;;;;;;;;;;;;;;;;5083638;28;19913;-63
2024/02/28 16:12:32;;;;;;;;;;;;;;;;;;5086192;28;19916;-62
2024/02/28 16:14:57;;;;;;;;;;;;;;;;;;5087348;28;19912;-63
2024/02/28 16:17:22;;;;;;;;;;;;;;;;;;5086716;28;19912;-64
2024/02/28 16:19:47;;;;;;;;;;;;;;;;;;5084881;28;20656;-63
2024/02/28 16:22:12;;;;;;;;;;;;;;;;;;5086706;28;19998;-61
2024/02/28 16:24:38;;;;;;;;;;;;;;;;;;5084435;28;19955;-56
2024/02/28 16:27:03;;;;;;;;;;;;;;;;;;5080197;28;19913;-56
2024/02/28 16:29:28;;;;;;;;;;;;;;;;;;5083500;28;20003;-57
2024/02/28 16:31:53;;;;;;;;;;;;;;;;;;5084524;28;19920;-57